Time;durP1;ratioP1;P1;durP2;ratioP2;P2;SDS_P1;SDS_P2;PMS_P1;PMS_P2;Temp;Humidity;BMP_temperature;BMP_pressure;BME280_temperature;BME280_humidity;BME280_pressure;Samples;Min_cycle;Max_cycle;Signal;HPM_P1;HPM_P2
2022/06/04 00:02:12;;;;;;;2.97;2.08;;;;;;;20.85;51.66;99828.53;5022875;28;20025;-95
2022/06/04 00:04:38;;;;;;;2.78;2.55;;;;;;;20.84;51.45;99824.97;5039473;28;20108;-96
2022/06/04 00:07:03;;;;;;;4.43;2.40;;;;;;;20.78;51.86;99830.38;5039876;28;20052;-93
2022/06/04 00:09:29;;;;;;;2.50;2.30;;;;;;;20.87;51.19;99826.44;5022969;28;20025;-96
2022/06/04 00:17:23;;;;;;;2.60;2.40;;;;;;;20.91;51.30;99844.00;5056291;28;20036;-94
2022/06/04 00:19:49;;;;;;;2.80;2.55;;;;;;;20.90;51.55;99834.19;5039338;28;20375;-94
2022/06/04 00:22:14;;;;;;;2.75;2.50;;;;;;;20.79;51.32;99832.88;5022363;28;20127;-95
2022/06/04 00:24:41;;;;;;;2.45;2.25;;;;;;;20.70;51.95;99815.09;5039264;28;20025;-96
2022/06/04 00:27:13;;;;;;;3.13;2.50;;;;;;;20.62;52.53;99815.31;5022231;28;20021;-94
2022/06/04 00:29:38;;;;;;;3.05;2.50;;;;;;;20.61;51.64;99805.47;5041068;28;20021;-96
2022/06/04 00:32:04;;;;;;;2.60;2.40;;;;;;;20.57;52.01;99809.66;5022166;28;20020;-95
2022/06/04 00:34:29;;;;;;;2.72;2.20;;;;;;;20.54;52.00;99808.19;5039031;28;20032;-95
2022/06/04 00:36:55;;;;;;;4.38;2.25;;;;;;;20.61;52.59;99817.19;5038606;28;20031;-94
2022/06/04 00:39:20;;;;;;;2.70;2.50;;;;;;;20.57;51.88;99818.66;5022078;28;20067;-95
2022/06/04 00:42:07;;;;;;;3.83;2.58;;;;;;;20.55;52.16;99814.47;5038405;28;20051;-94
2022/06/04 00:44:32;;;;;;;3.40;2.40;;;;;;;20.54;52.08;99816.34;5022027;28;20116;-90
2022/06/04 00:47:08;;;;;;;2.95;2.10;;;;;;;20.62;52.39;99824.28;5055271;28;20136;-96
2022/06/04 00:49:33;;;;;;;2.97;2.50;;;;;;;20.56;51.98;99836.00;5038312;28;20090;-93
2022/06/04 00:52:01;;;;;;;3.13;2.50;;;;;;;20.55;52.74;99838.91;5038176;28;20041;-95
2022/06/04 00:54:27;;;;;;;3.53;2.67;;;;;;;20.56;52.77;99846.03;5022020;28;20047;-95
2022/06/04 00:57:16;;;;;;;2.88;2.58;;;;;;;20.65;52.71;99851.06;5021645;28;20051;-95
2022/06/04 01:00:00;;;;;;;3.60;2.53;;;;;;;20.61;52.50;99851.69;5038371;28;20021;-94
2022/06/04 02:25:56;;;;;;;6.15;2.63;;;;;;;19.95;54.67;99851.41;5054364;28;20102;-95
2022/06/04 02:28:22;;;;;;;3.55;2.55;;;;;;;19.85;54.03;99859.88;5016876;28;20045;-96
2022/06/04 02:30:50;;;;;;;2.90;2.60;;;;;;;19.79;54.44;99855.25;5000482;28;20032;-96
2022/06/04 02:33:41;;;;;;;4.05;3.08;;;;;;;19.71;54.41;99855.41;5000776;28;20067;-96
2022/06/04 02:36:11;;;;;;;3.70;2.63;;;;;;;19.70;54.95;99860.00;5016170;28;20033;-96
2022/06/04 02:38:44;;;;;;;5.97;3.08;;;;;;;19.69;54.86;99858.34;5000322;28;20033;-96
2022/06/04 02:41:12;;;;;;;2.83;2.50;;;;;;;19.64;55.79;99854.53;5000523;28;20041;-95
2022/06/04 02:44:05;;;;;;;3.80;2.88;;;;;;;19.66;55.43;99858.72;5000538;28;20040;-96
2022/06/04 02:49:14;;;;;;;3.97;2.40;;;;;;;19.74;54.48;99834.16;5415807;23;20069;-95
2022/06/04 02:51:43;;;;;;;4.13;2.70;;;;;;;19.81;54.93;99836.91;5053072;28;20463;-95
2022/06/04 02:54:09;;;;;;;;;;;;;;;19.62;54.62;99841.19;5020406;28;20486;-95
2022/06/04 02:56:38;;;;;;;5.55;2.88;;;;;;;19.55;54.97;99832.16;5053608;28;19916;-96
2022/06/04 02:59:05;;;;;;;3.55;2.75;;;;;;;19.58;55.09;99834.47;5039271;28;20036;-95
2022/06/04 03:01:32;;;;;;;6.22;2.80;;;;;;;19.59;55.60;99833.44;5023760;28;20067;-95
2022/06/04 03:03:58;;;;;;;3.33;2.60;;;;;;;19.52;55.36;99821.69;5057293;28;20087;-96
2022/06/04 03:06:26;;;;;;;3.53;2.95;;;;;;;19.59;54.89;99814.44;5040614;28;20458;-94
2022/06/04 03:08:53;;;;;;;4.38;2.97;;;;;;;19.61;55.28;99823.22;5024100;28;20378;-94
2022/06/04 03:11:18;;;;;;;4.95;2.65;;;;;;;19.57;55.11;99821.09;5023981;28;20082;-95
2022/06/04 03:13:45;;;;;;;5.70;2.67;;;;;;;19.52;54.69;99818.97;5057156;28;20025;-95
2022/06/04 03:16:11;;;;;;;3.75;2.85;;;;;;;19.54;54.78;99826.94;5040161;28;20032;-95
2022/06/04 03:18:37;;;;;;;5.22;3.00;;;;;;;19.40;54.67;99831.41;5036713;28;20033;-94
2022/06/04 03:21:03;;;;;;;4.03;3.08;;;;;;;19.25;55.40;99817.94;5004123;28;20036;-95
2022/06/04 03:23:28;;;;;;;3.05;2.70;;;;;;;19.44;54.90;99819.97;5004162;28;20025;-95
2022/06/04 03:25:54;;;;;;;3.58;2.85;;;;;;;19.36;54.80;99816.53;5004006;28;20486;-95
2022/06/04 03:28:19;;;;;;;4.53;2.70;;;;;;;19.45;54.91;99813.50;5020323;28;20124;-95
2022/06/04 03:30:44;;;;;;;4.15;2.83;;;;;;;19.38;54.56;99828.88;5036863;28;20030;-96
2022/06/04 03:33:10;;;;;;;3.08;2.72;;;;;;;19.36;54.81;99820.09;5053051;28;20028;-94
2022/06/04 03:35:35;;;;;;;5.18;3.03;;;;;;;19.33;55.51;99822.34;5020142;28;20463;-95
2022/06/04 03:38:01;;;;;;;3.97;2.90;;;;;;;19.16;55.14;99825.38;5020295;28;20029;-96
2022/06/04 04:41:36;;;;;;;6.90;3.40;;;;;;;19.01;56.64;99900.53;5036258;28;20088;-96
2022/06/04 04:44:02;;;;;;;4.53;3.28;;;;;;;19.01;57.49;99892.41;5035215;28;20112;-95
2022/06/04 04:46:28;;;;;;;4.47;3.42;;;;;;;18.97;56.47;99896.53;5019103;28;20483;-94
2022/06/04 04:48:53;;;;;;;5.20;3.50;;;;;;;18.90;57.05;99898.31;5018558;28;20029;-95
2022/06/04 04:51:23;;;;;;;5.05;3.65;;;;;;;18.83;56.96;99906.38;5002293;28;20071;-96
2022/06/04 04:53:50;;;;;;;5.20;3.65;;;;;;;18.79;57.68;99896.94;5018507;28;20029;-96
2022/06/04 04:56:17;;;;;;;4.80;3.53;;;;;;;18.77;57.75;99898.19;5018844;28;20021;-95
2022/06/04 04:58:43;;;;;;;5.82;3.28;;;;;;;18.89;57.32;99902.06;5018347;28;20037;-95
2022/06/04 05:01:21;;;;;;;5.60;3.38;;;;;;;18.75;57.98;99903.78;5018731;28;20025;-96
2022/06/04 05:03:46;;;;;;;5.43;3.63;;;;;;;18.88;57.46;99903.09;5002207;28;20025;-95
2022/06/04 05:06:14;;;;;;;6.40;3.50;;;;;;;18.86;57.87;99897.00;5001882;28;20036;-96
2022/06/04 05:08:39;;;;;;;4.30;3.40;;;;;;;18.88;57.61;99900.38;5018131;28;20033;-96
2022/06/04 05:11:10;;;;;;;6.68;3.67;;;;;;;18.81;58.38;99904.88;5018757;28;20470;-96
2022/06/04 05:13:35;;;;;;;6.80;3.22;;;;;;;18.88;58.48;99900.38;5051248;28;20109;-96
2022/06/04 05:16:01;;;;;;;5.75;3.90;;;;;;;18.78;58.03;99906.13;5018140;28;20057;-96
2022/06/04 05:18:27;;;;;;;5.00;3.35;;;;;;;18.83;57.73;99909.06;5017954;28;20037;-96
2022/06/04 05:20:52;;;;;;;4.35;3.35;;;;;;;18.90;58.60;99911.03;5017656;28;20462;-96
2022/06/04 05:23:17;;;;;;;5.82;3.97;;;;;;;18.76;58.65;99919.00;5018756;28;20029;-96
2022/06/04 05:25:44;;;;;;;6.60;3.83;;;;;;;18.67;58.46;99922.88;5017941;28;20025;-96
2022/06/04 05:28:09;;;;;;;6.10;3.67;;;;;;;18.83;58.33;99925.34;5001333;28;20045;-94
2022/06/04 05:30:35;;;;;;;5.10;3.88;;;;;;;18.95;58.27;99920.28;5019135;28;20029;-95
2022/06/04 05:33:01;;;;;;;5.30;4.00;;;;;;;18.95;58.52;99928.41;5018173;28;20021;-96
2022/06/04 05:35:26;;;;;;;6.38;3.75;;;;;;;18.99;58.78;99934.28;5019037;28;20337;-95
2022/06/04 05:37:52;;;;;;;5.13;3.83;;;;;;;18.95;58.24;99933.81;5034341;28;20032;-96
2022/06/04 05:40:17;;;;;;;5.15;4.25;;;;;;;18.88;58.83;99931.03;5001313;28;20025;-95
2022/06/04 05:42:42;;;;;;;4.72;3.72;;;;;;;18.87;58.65;99942.06;5017464;28;20168;-95
2022/06/04 05:45:08;;;;;;;5.00;3.83;;;;;;;18.83;58.72;99938.88;5034168;28;20030;-96
2022/06/04 05:47:33;;;;;;;6.28;3.88;;;;;;;18.82;58.85;99949.91;5017428;28;20025;-95
2022/06/04 05:49:59;;;;;;;4.13;3.55;;;;;;;19.03;59.04;99946.41;5001128;28;20021;-95
2022/06/04 05:52:24;;;;;;;5.45;4.25;;;;;;;18.94;59.04;99950.28;5050535;28;20017;-96
2022/06/04 05:54:50;;;;;;;5.15;4.18;;;;;;;19.02;58.45;99948.28;5034063;28;20092;-96
2022/06/04 05:57:15;;;;;;;6.40;4.60;;;;;;;18.85;58.44;99954.97;5017663;28;20025;-95
2022/06/04 05:59:40;;;;;;;4.72;3.90;;;;;;;18.78;59.36;99948.63;5017837;28;20092;-96
2022/06/04 06:02:06;;;;;;;4.93;4.25;;;;;;;19.00;58.49;99952.22;5017720;28;20493;-96
2022/06/04 06:04:32;;;;;;;5.32;4.32;;;;;;;19.03;58.87;99963.53;5033816;28;20021;-96
2022/06/04 06:06:59;;;;;;;4.32;3.88;;;;;;;19.06;58.99;99951.44;5000637;28;20033;-95
2022/06/04 06:09:26;;;;;;;4.35;3.95;;;;;;;19.00;58.29;99950.34;5017704;28;20099;-96
2022/06/04 06:11:53;;;;;;;5.00;4.47;;;;;;;19.08;58.50;99952.94;5033770;28;20108;-96
2022/06/04 06:14:19;;;;;;;4.75;4.13;;;;;;;18.99;58.61;99950.53;5017106;28;20061;-95
2022/06/04 06:16:47;;;;;;;5.03;4.32;;;;;;;19.00;58.71;99947.63;5000587;28;20071;-96
2022/06/04 06:19:13;;;;;;;4.88;4.30;;;;;;;18.90;59.22;99954.38;5019454;28;20056;-96
2022/06/04 06:21:39;;;;;;;4.75;4.32;;;;;;;18.88;59.38;99962.69;5001284;28;20018;-96
2022/06/04 06:24:07;;;;;;;5.82;4.15;;;;;;;19.12;59.71;99956.09;5000564;28;20022;-96
2022/06/04 06:26:34;;;;;;;7.43;4.95;;;;;;;19.16;58.30;99960.09;5017212;28;20025;-96
2022/06/04 06:29:01;;;;;;;7.30;4.18;;;;;;;19.15;58.76;99958.41;5018042;28;20049;-96
2022/06/04 06:31:28;;;;;;;4.97;4.53;;;;;;;19.16;58.77;99968.22;5017684;28;20048;-96
2022/06/04 06:33:53;;;;;;;4.75;4.25;;;;;;;19.26;58.53;99973.34;5033382;28;20048;-96
2022/06/04 06:36:20;;;;;;;5.68;4.30;;;;;;;19.21;59.31;99967.66;5016845;28;20483;-95
2022/06/04 06:38:46;;;;;;;5.05;4.50;;;;;;;19.13;58.66;99965.91;5017471;28;20459;-93
2022/06/04 06:41:13;;;;;;;5.20;4.70;;;;;;;19.16;59.40;99969.06;5016691;28;20059;-93
2022/06/04 06:43:46;;;;;;;4.50;4.00;;;;;;;19.26;58.84;99981.47;5032867;28;20037;-93
2022/06/04 06:46:21;;;;;;;4.82;4.35;;;;;;;19.31;59.46;99987.16;5033746;28;20471;-93
2022/06/04 06:48:48;;;;;;;5.13;4.57;;;;;;;19.30;58.58;99983.59;5000666;28;20469;-92
2022/06/04 06:51:20;;;;;;;5.38;4.30;;;;;;;19.38;58.32;99979.91;5016635;28;20125;-92
2022/06/04 06:53:45;;;;;;;5.45;4.43;;;;;;;19.33;59.21;99974.22;5016858;28;20022;-94
2022/06/04 06:56:14;;;;;;;6.00;4.80;;;;;;;19.34;59.36;99976.75;5000530;28;20026;-92
2022/06/04 06:58:40;;;;;;;4.43;4.03;;;;;;;19.40;58.57;99972.44;5016792;28;20025;-94
2022/06/04 07:01:06;;;;;;;5.43;4.63;;;;;;;19.38;59.73;99978.03;5016419;28;20426;-94
2022/06/04 07:03:32;;;;;;;6.70;4.88;;;;;;;19.21;58.97;99984.75;5015267;28;20029;-87
2022/06/04 07:05:57;;;;;;;4.20;3.90;;;;;;;19.23;59.55;99990.84;4990422;28;20483;-87
2022/06/04 07:08:23;;;;;;;5.57;5.00;;;;;;;19.15;60.18;99993.66;5007008;28;20086;-87
2022/06/04 07:10:49;;;;;;;6.50;4.60;;;;;;;19.08;60.34;99988.19;5030637;28;20451;-87
2022/06/04 07:13:14;;;;;;;6.18;4.63;;;;;;;19.04;61.10;99989.59;5025681;28;20562;-86
2022/06/04 07:15:40;;;;;;;6.38;4.90;;;;;;;19.06;60.16;99983.97;5011984;28;20036;-87
2022/06/04 07:18:06;;;;;;;5.95;4.40;;;;;;;18.97;60.20;99977.84;5030374;28;20021;-87
2022/06/04 07:20:31;;;;;;;10.27;4.55;;;;;;;19.09;59.91;99984.44;5033705;28;20831;-87
2022/06/04 07:22:56;;;;;;;4.57;4.18;;;;;;;19.12;60.37;99986.75;5035601;28;20108;-86
2022/06/04 07:25:22;;;;;;;4.43;4.03;;;;;;;19.10;60.47;99979.84;5023815;28;20116;-87
2022/06/04 07:27:48;;;;;;;6.32;4.35;;;;;;;19.15;60.28;99982.81;4997956;28;20390;-87
2022/06/04 07:30:13;;;;;;;5.28;4.10;;;;;;;19.17;60.53;99980.75;5031873;28;20034;-87
2022/06/04 07:32:40;;;;;;;5.30;4.80;;;;;;;19.07;60.67;99985.66;5028280;28;20033;-87
2022/06/04 07:35:05;;;;;;;5.30;4.70;;;;;;;19.04;60.54;99977.91;5012870;28;20032;-88
2022/06/04 07:37:31;;;;;;;5.40;4.15;;;;;;;19.18;60.30;99972.44;5016729;28;20264;-87
2022/06/04 07:39:56;;;;;;;5.18;4.43;;;;;;;19.32;59.95;99969.84;5011511;28;20025;-88
2022/06/04 07:42:21;;;;;;;4.88;4.13;;;;;;;19.34;59.43;99974.03;5008461;28;20108;-87
2022/06/04 07:44:47;;;;;;;5.32;4.50;;;;;;;19.29;59.73;99973.78;4984513;28;20056;-88
2022/06/04 07:47:12;;;;;;;6.88;4.20;;;;;;;19.35;60.34;99977.59;5001353;28;20030;-87
2022/06/04 07:49:37;;;;;;;5.63;4.40;;;;;;;19.43;59.59;99978.31;4987905;28;20472;-87
2022/06/04 07:52:03;;;;;;;6.53;4.10;;;;;;;19.51;59.47;99977.34;4984165;28;20029;-88
2022/06/04 07:54:29;;;;;;;5.13;4.40;;;;;;;19.55;59.66;99975.94;5001071;28;20082;-88
2022/06/04 07:56:54;;;;;;;4.95;4.45;;;;;;;19.58;58.91;99963.88;4983634;28;20029;-87
2022/06/04 07:59:20;;;;;;;5.00;4.45;;;;;;;19.51;59.28;99958.34;4972901;28;20026;-88
2022/06/04 08:01:45;;;;;;;5.20;4.70;;;;;;;19.46;59.34;99967.09;4972415;28;20030;-87
2022/06/04 08:04:11;;;;;;;6.88;4.97;;;;;;;19.33;59.70;99968.81;4985570;28;20532;-88
2022/06/04 08:06:38;;;;;;;4.97;4.05;;;;;;;19.50;59.89;99962.94;5003256;28;20084;-88
2022/06/04 08:09:03;;;;;;;5.90;4.15;;;;;;;19.61;59.65;99967.03;4988333;28;20057;-88
2022/06/04 08:11:31;;;;;;;5.20;4.68;;;;;;;19.64;59.85;99960.38;4989462;28;20110;-89
2022/06/04 08:14:19;;;;;;;5.22;4.72;;;;;;;19.60;59.90;99962.63;4988142;28;20034;-88
2022/06/04 08:16:51;;;;;;;7.35;4.63;;;;;;;19.63;60.34;99977.69;5001976;28;20061;-86
2022/06/04 08:19:17;;;;;;;4.30;3.90;;;;;;;19.73;59.38;99976.31;4991711;28;20471;-85
2022/06/04 08:21:43;;;;;;;4.80;4.40;;;;;;;19.74;59.61;99972.56;4995704;28;20117;-92
2022/06/04 08:24:10;;;;;;;4.22;3.83;;;;;;;19.85;59.49;99963.03;4979293;28;20022;-93
2022/06/04 08:26:35;;;;;;;3.92;3.47;;;;;;;19.88;59.38;99965.38;4991885;28;20030;-92
2022/06/04 08:29:01;;;;;;;4.80;4.30;;;;;;;19.83;59.07;99966.97;5013489;28;20041;-93
2022/06/04 08:31:26;;;;;;;6.45;4.63;;;;;;;19.83;59.70;99980.53;4996961;28;20124;-92
2022/06/04 08:33:52;;;;;;;5.53;4.43;;;;;;;19.82;59.55;99993.28;4978564;28;20026;-91
2022/06/04 08:36:19;;;;;;;13.45;5.15;;;;;;;19.73;59.89;99989.88;4979221;28;20433;-92
2022/06/04 08:38:44;;;;;;;6.43;5.10;;;;;;;19.62;60.09;99997.72;4978496;28;20038;-92
2022/06/04 08:41:38;;;;;;;5.88;4.43;;;;;;;19.65;60.73;100006.31;4977655;28;20518;-92
2022/06/04 08:44:13;;;;;;;5.55;4.60;;;;;;;19.66;60.17;100007.97;5029612;28;20045;-93
2022/06/04 08:46:49;;;;;;;5.75;4.57;;;;;;;19.70;59.64;100008.44;5040683;28;20021;-93
2022/06/04 08:49:21;;;;;;;7.25;3.90;;;;;;;19.79;60.06;100015.38;5025033;28;20500;-92
2022/06/04 08:51:47;;;;;;;5.53;4.82;;;;;;;19.79;60.34;100021.66;5010993;28;20055;-93
2022/06/04 08:59:58;;;;;;;6.28;4.57;;;;;;;19.81;59.96;100008.72;5033060;28;20064;-93
2022/06/04 09:02:44;;;;;;;7.13;5.30;;;;;;;19.66;59.88;100016.13;5029723;28;20056;-94
2022/06/04 09:05:23;;;;;;;4.97;4.50;;;;;;;19.75;60.71;100019.53;5006210;28;20029;-94
2022/06/04 09:07:51;;;;;;;5.72;5.15;;;;;;;19.83;60.84;100026.69;5018411;28;20056;-94
2022/06/04 09:10:22;;;;;;;5.90;5.30;;;;;;;19.86;60.23;100027.13;5039747;28;20025;-94
2022/06/04 09:12:56;;;;;;;5.80;4.70;;;;;;;19.86;60.81;100016.28;5038191;28;20275;-95
2022/06/04 09:15:29;;;;;;;7.28;5.40;;;;;;;19.84;60.52;100014.78;5021762;28;20040;-96
2022/06/04 09:18:01;;;;;;;5.82;4.68;;;;;;;19.86;60.94;100020.88;5008350;28;20021;-93
2022/06/04 09:20:46;;;;;;;5.32;4.47;;;;;;;19.88;60.61;100016.94;5040960;28;20285;-93
2022/06/04 09:23:11;;;;;;;6.38;4.90;;;;;;;19.92;60.21;100010.09;5029579;28;20461;-92
2022/06/04 09:25:58;;;;;;;5.25;4.47;;;;;;;19.94;60.68;100020.75;5022322;28;20040;-95
2022/06/04 09:28:42;;;;;;;5.97;4.32;;;;;;;19.95;60.63;100017.84;5038190;28;20524;-94
2022/06/04 09:31:49;;;;;;;6.03;5.10;;;;;;;19.99;60.83;100029.16;5012508;28;20040;-95
2022/06/04 09:34:27;;;;;;;6.70;6.10;;;;;;;20.02;60.54;100020.59;5012783;28;20098;-93
2022/06/04 09:36:53;;;;;;;6.18;5.55;;;;;;;20.05;60.55;100022.91;5037282;28;20017;-94
2022/06/04 09:39:24;;;;;;;7.20;6.50;;;;;;;20.05;60.35;100031.06;5005196;28;20616;-95
2022/06/04 09:42:20;;;;;;;5.70;5.20;;;;;;;19.97;60.80;100021.19;5021559;28;20422;-93
2022/06/04 09:44:49;;;;;;;6.20;5.60;;;;;;;19.98;61.02;100022.03;5018538;28;20052;-93
2022/06/04 09:47:19;;;;;;;6.22;5.70;;;;;;;20.02;60.88;100026.88;5038192;28;20029;-91
2022/06/04 09:49:58;;;;;;;5.60;4.82;;;;;;;20.09;60.70;100026.91;5021125;28;20017;-93
2022/06/04 09:52:34;;;;;;;5.65;5.05;;;;;;;20.07;60.99;100037.97;5033929;28;20152;-93
2022/06/04 09:55:08;;;;;;;7.30;6.60;;;;;;;20.00;60.96;100037.09;5021100;28;20432;-93
2022/06/04 09:57:35;;;;;;;8.10;5.90;;;;;;;19.96;61.16;100038.53;5027946;28;20077;-91
2022/06/04 10:00:07;;;;;;;6.70;5.30;;;;;;;20.01;61.43;100018.91;5012390;28;20074;-93
2022/06/04 10:02:32;;;;;;;6.22;5.40;;;;;;;20.07;61.19;100024.41;5027578;28;20032;-96
2022/06/04 10:05:02;;;;;;;5.55;4.97;;;;;;;20.17;60.90;100025.91;5010279;28;20057;-90
2022/06/04 10:07:31;;;;;;;6.18;5.50;;;;;;;20.24;61.55;100033.06;5009376;28;20021;-95
2022/06/04 10:09:56;;;;;;;;;;;;;;;20.21;61.40;100025.31;5011847;28;20048;-91
2022/06/04 10:13:42;;;;;;;6.45;5.90;;;;;;;20.25;61.18;100032.03;5037705;28;20382;-96
2022/06/04 10:15:39;;;;;;;5.15;4.45;;;;;;;20.28;60.94;100028.09;5033213;28;20045;-93
2022/06/04 10:18:16;;;;;;;6.45;5.82;;;;;;;20.34;60.84;100033.59;5022474;28;20463;-91
2022/06/04 10:21:17;;;;;;;8.95;6.32;;;;;;;20.39;60.81;100033.00;5033092;28;20021;-91
2022/06/04 10:23:48;;;;;;;4.20;3.70;;;;;;;20.46;60.61;100031.19;5032567;28;20035;-91
2022/06/04 10:26:42;;;;;;;5.43;4.93;;;;;;;20.55;60.89;100032.69;5014217;28;20030;-96
2022/06/04 10:29:30;;;;;;;6.40;5.78;;;;;;;20.56;61.10;100033.53;5040507;28;20079;-93
2022/06/04 10:32:18;;;;;;;6.90;6.22;;;;;;;20.61;61.51;100031.88;5030153;28;20025;-92
2022/06/04 10:34:49;;;;;;;7.85;5.68;;;;;;;20.66;61.34;100031.28;5037155;28;20057;-93
2022/06/04 10:37:56;;;;;;;6.88;5.88;;;;;;;20.71;61.06;100035.06;5038035;28;20040;-90
2022/06/04 10:40:39;;;;;;;4.90;4.50;;;;;;;20.81;61.68;100034.72;4991802;28;20070;-94
2022/06/04 10:43:32;;;;;;;7.38;6.45;;;;;;;20.86;61.36;100029.50;5022207;28;20852;-94
2022/06/04 10:46:23;;;;;;;6.15;5.50;;;;;;;20.87;61.52;100025.75;5056494;28;20029;-91
2022/06/04 10:49:22;;;;;;;6.35;4.80;;;;;;;20.89;61.16;100026.38;5016316;28;20025;-90
2022/06/04 10:52:24;;;;;;;5.95;5.45;;;;;;;20.91;61.35;100021.59;5021181;28;20025;-94
2022/06/04 10:55:07;;;;;;;7.60;6.90;;;;;;;20.95;61.00;100020.13;4986718;28;20040;-94
2022/06/04 10:57:37;;;;;;;6.55;5.68;;;;;;;20.95;61.64;100033.72;5037116;28;20063;-96
2022/06/04 11:00:11;;;;;;;7.20;6.47;;;;;;;20.97;61.08;100031.66;5016754;28;20025;-94
2022/06/04 11:02:41;;;;;;;9.23;5.97;;;;;;;20.98;61.66;100032.47;5048742;28;20037;-95
2022/06/04 11:05:14;;;;;;;7.18;6.38;;;;;;;21.00;61.32;100036.69;5036051;28;20471;-95
2022/06/04 11:08:02;;;;;;;6.97;5.88;;;;;;;21.00;61.15;100044.00;5034208;28;20036;-93
2022/06/04 11:10:33;;;;;;;6.80;6.13;;;;;;;21.01;61.41;100032.91;5033023;28;20056;-93
2022/06/04 11:13:09;;;;;;;8.50;5.85;;;;;;;21.03;61.72;100036.25;5017633;28;20079;-95
2022/06/04 11:16:03;;;;;;;5.93;5.43;;;;;;;21.09;62.32;100039.22;5021817;28;20033;-93
2022/06/04 11:18:42;;;;;;;7.47;6.60;;;;;;;21.16;62.28;100042.78;5011768;28;20028;-96
2022/06/04 11:21:26;;;;;;;7.68;6.35;;;;;;;21.16;61.50;100043.63;5014777;28;20068;-92
2022/06/04 11:24:08;;;;;;;7.50;6.45;;;;;;;21.25;61.73;100039.72;5005756;28;20388;-93
2022/06/04 11:26:57;;;;;;;6.72;6.00;;;;;;;21.26;61.94;100040.53;5021577;28;20035;-90
2022/06/04 11:29:23;;;;;;;10.63;7.28;;;;;;;21.30;62.28;100039.97;5031921;28;20033;-94
2022/06/04 11:32:08;;;;;;;8.82;6.55;;;;;;;21.28;61.40;100033.84;5024422;28;20075;-92
2022/06/04 11:35:03;;;;;;;8.70;7.35;;;;;;;21.31;61.55;100035.34;5005006;28;20071;-93
2022/06/04 11:37:47;;;;;;;7.57;5.93;;;;;;;21.30;61.88;100041.84;5041969;28;20071;-93
2022/06/04 11:40:24;;;;;;;9.02;8.13;;;;;;;21.30;61.40;100034.50;5023989;28;20029;-95
2022/06/04 11:42:52;;;;;;;6.38;5.78;;;;;;;21.28;61.38;100043.91;5036903;28;20515;-94
2022/06/04 11:45:47;;;;;;;10.23;6.55;;;;;;;21.26;62.74;100026.94;5039081;28;20044;-95
2022/06/04 11:48:18;;;;;;;7.63;6.82;;;;;;;21.32;61.78;100028.88;5022759;28;20040;-93
2022/06/04 11:51:08;;;;;;;8.13;7.13;;;;;;;21.38;62.80;100027.19;5042744;28;20031;-91
2022/06/04 11:53:40;;;;;;;8.35;7.55;;;;;;;21.43;61.85;100024.69;5019769;28;20482;-93
2022/06/04 11:56:19;;;;;;;10.95;7.00;;;;;;;21.46;62.43;100019.69;5031325;28;20477;-94
2022/06/04 11:58:55;;;;;;;7.07;6.38;;;;;;;21.47;62.05;100010.47;5042313;28;20021;-93
2022/06/04 12:01:44;;;;;;;7.55;6.75;;;;;;;21.46;62.33;100016.13;5039425;28;20116;-92
2022/06/04 12:04:37;;;;;;;7.55;6.32;;;;;;;21.44;62.53;100008.16;5013216;28;20052;-90
2022/06/04 12:07:15;;;;;;;7.75;6.85;;;;;;;21.49;62.48;100016.53;5009487;28;20108;-94
2022/06/04 12:09:51;;;;;;;7.50;6.22;;;;;;;21.53;61.52;100012.34;5022594;28;20025;-91
2022/06/04 12:12:22;;;;;;;7.80;6.30;;;;;;;21.52;62.42;100018.84;5023863;28;20025;-93
2022/06/04 12:14:53;;;;;;;7.20;6.40;;;;;;;21.52;62.10;100012.56;5014131;28;20032;-92
2022/06/04 12:17:52;;;;;;;8.15;7.00;;;;;;;21.56;61.50;100005.66;5039977;28;20050;-92
2022/06/04 12:26:20;;;;;;;8.23;6.40;;;;;;;21.68;61.56;99999.38;5039628;28;20048;-91
2022/06/04 12:28:46;;;;;;;7.75;6.50;;;;;;;21.68;61.28;99999.38;5040672;28;20029;-93
2022/06/04 12:31:11;;;;;;;6.88;6.13;;;;;;;21.72;61.00;100010.69;5025144;28;20297;-92
2022/06/04 12:33:48;;;;;;;6.97;6.32;;;;;;;21.74;61.35;100002.31;5006192;28;20029;-94
2022/06/04 12:36:34;;;;;;;5.93;5.40;;;;;;;21.68;61.53;99996.66;5007871;28;20072;-95
2022/06/04 12:39:06;;;;;;;6.32;5.70;;;;;;;21.71;62.16;99995.41;5037274;28;20034;-93
2022/06/04 12:41:47;;;;;;;5.28;4.50;;;;;;;21.71;61.83;100003.56;5006771;28;20481;-89
2022/06/04 12:44:32;;;;;;;7.60;6.90;;;;;;;21.81;61.07;100000.44;5005360;28;20042;-94
2022/06/04 12:47:22;;;;;;;6.38;5.20;;;;;;;21.78;62.06;100001.72;5005629;28;20040;-93
2022/06/04 12:49:58;;;;;;;6.32;5.72;;;;;;;21.87;60.94;99997.72;5025143;28;20036;-90
2022/06/04 12:52:31;;;;;;;6.75;6.13;;;;;;;21.88;60.84;99995.84;5006087;28;20033;-93
2022/06/04 12:55:08;;;;;;;5.53;5.03;;;;;;;21.88;61.46;99984.94;5031869;28;20021;-93
2022/06/04 12:57:40;;;;;;;7.18;6.55;;;;;;;21.96;61.31;99977.41;5005290;28;20115;-92
2022/06/04 13:00:36;;;;;;;6.30;5.28;;;;;;;21.94;61.09;99986.81;5039189;28;20052;-90
2022/06/04 13:03:07;;;;;;;8.60;6.22;;;;;;;21.99;61.36;99990.59;5023508;28;20044;-90
2022/06/04 13:05:54;;;;;;;8.68;6.38;;;;;;;22.00;60.82;99986.81;5030867;28;20108;-92
2022/06/04 13:08:19;;;;;;;7.82;6.47;;;;;;;22.09;60.51;99983.91;5023872;28;20025;-93
2022/06/04 13:10:53;;;;;;;9.98;8.52;;;;;;;22.04;60.44;99986.44;5024074;28;20087;-89
2022/06/04 13:13:41;;;;;;;7.90;5.85;;;;;;;22.09;61.34;99994.78;5039451;28;20024;-94
2022/06/04 13:16:19;;;;;;;6.50;5.90;;;;;;;22.19;60.57;99989.75;5023216;28;20024;-91
2022/06/04 13:18:55;;;;;;;5.97;5.38;;;;;;;22.23;60.61;99986.41;5016155;28;20025;-93
2022/06/04 13:21:21;;;;;;;7.00;6.30;;;;;;;22.25;60.11;99992.47;5037033;28;20030;-93
2022/06/04 13:23:51;;;;;;;6.47;5.82;;;;;;;22.26;60.75;99980.53;5007259;28;20033;-92
2022/06/04 13:26:35;;;;;;;7.05;5.63;;;;;;;22.23;60.62;99985.53;5013894;28;20102;-94
2022/06/04 13:29:02;;;;;;;7.22;5.40;;;;;;;22.30;60.75;99983.66;5039323;28;20096;-91
2022/06/04 13:31:32;;;;;;;5.90;5.30;;;;;;;22.30;60.64;99984.50;5007019;28;20497;-93
2022/06/04 13:34:12;;;;;;;6.72;6.03;;;;;;;22.25;60.58;99984.31;5021656;28;20025;-92
2022/06/04 13:36:37;;;;;;;6.07;5.57;;;;;;;22.32;60.57;99980.72;5005664;28;20041;-90
2022/06/04 13:39:03;;;;;;;4.88;4.43;;;;;;;22.24;60.88;99979.06;5025429;28;20382;-93
2022/06/04 13:44:26;;;;;;;7.25;6.20;;;;;;;22.33;60.54;99976.94;5039554;28;20399;-92
2022/06/04 13:46:52;;;;;;;6.28;4.60;;;;;;;22.27;61.12;99968.59;5031403;28;20029;-93
2022/06/04 13:49:26;;;;;;;6.25;4.38;;;;;;;22.25;61.44;99973.41;5021256;28;20032;-93
2022/06/04 13:51:59;;;;;;;6.63;5.93;;;;;;;22.33;60.70;99975.06;5003522;28;20375;-91
2022/06/04 13:54:29;;;;;;;7.50;6.80;;;;;;;22.43;60.43;99971.88;5003139;28;20018;-90
2022/06/04 13:56:56;;;;;;;6.53;5.63;;;;;;;22.52;60.41;99962.41;5025431;28;20454;-90
2022/06/04 13:59:28;;;;;;;5.88;5.38;;;;;;;22.50;61.09;99970.81;5005696;28;20056;-94
2022/06/04 14:02:03;;;;;;;5.20;4.68;;;;;;;22.45;60.80;99970.63;5006834;28;20503;-88
2022/06/04 14:07:14;;;;;;;6.30;5.57;;;;;;;22.57;60.44;99974.34;5034184;28;20053;-88
2022/06/04 14:09:39;;;;;;;5.32;4.47;;;;;;;22.54;60.81;99972.06;5035897;28;20371;-86
2022/06/04 14:12:40;;;;;;;5.75;5.15;;;;;;;22.59;60.38;99972.25;5034347;28;20025;-87
2022/06/04 14:15:30;;;;;;;6.30;5.70;;;;;;;22.69;59.76;99979.13;5014651;28;20114;-87
2022/06/04 14:18:22;;;;;;;5.78;5.18;;;;;;;22.64;59.84;99968.88;5057072;28;20033;-86
2022/06/04 14:20:56;;;;;;;5.97;5.38;;;;;;;22.67;60.23;99981.22;5020415;28;20538;-87
2022/06/04 14:23:44;;;;;;;6.88;5.70;;;;;;;22.70;60.06;99976.19;5035363;28;20084;-86
2022/06/04 14:26:37;;;;;;;5.60;4.73;;;;;;;22.68;60.30;99964.66;5031749;28;20029;-87
2022/06/04 14:29:15;;;;;;;6.60;5.55;;;;;;;22.72;59.72;99965.91;5018441;28;20462;-87
2022/06/04 14:31:58;;;;;;;5.88;5.38;;;;;;;22.75;60.17;99964.66;5003569;28;20082;-84
2022/06/04 14:34:35;;;;;;;7.10;6.38;;;;;;;22.86;59.20;99955.81;5018806;28;20458;-87
2022/06/04 14:37:00;;;;;;;4.97;4.55;;;;;;;22.81;59.99;99951.00;5018672;28;20549;-87
2022/06/04 14:39:27;;;;;;;7.35;5.53;;;;;;;22.84;61.01;99956.03;5018975;28;20067;-87
2022/06/04 14:41:57;;;;;;;5.47;5.07;;;;;;;22.83;60.04;99950.78;5033696;28;20446;-86
2022/06/04 14:44:33;;;;;;;5.93;5.32;;;;;;;22.83;60.48;99950.78;5032150;28;20112;-86
2022/06/04 14:47:05;;;;;;;7.15;5.45;;;;;;;22.82;59.99;99946.38;5019648;28;20052;-87